createdAt,value
2019-03-16T14:40:05.985Z,2.20
2019-03-16T14:45:10.558Z,2.12
2019-03-16T14:50:16.780Z,2.17
2019-03-16T14:55:22.998Z,2.10
2019-03-16T15:00:37.820Z,2.10
2019-03-16T15:05:33.190Z,2.08
2019-03-16T15:10:37.556Z,1.95
2019-03-16T15:15:41.844Z,2.00
2019-03-16T15:20:46.293Z,2.00
2019-03-16T15:25:50.895Z,1.70
2019-03-16T15:30:56.744Z,1.70
2019-03-16T15:36:00.887Z,1.60
2019-03-16T15:41:05.220Z,1.50
2019-03-16T15:46:09.400Z,1.70
2019-03-16T15:51:24.149Z,2.00
2019-03-16T15:56:28.511Z,2.00
2019-03-16T16:01:32.935Z,1.70
2019-03-16T16:06:37.175Z,1.70
2019-03-16T16:11:47.053Z,1.80
2019-03-16T16:16:50.524Z,1.60
2019-03-16T16:21:54.812Z,1.60
2019-03-16T16:26:59.045Z,1.55
2019-03-16T16:32:03.463Z,1.73
2019-03-16T16:37:07.886Z,1.50
2019-03-16T16:42:12.185Z,1.50
2019-03-16T16:47:16.428Z,2.60
2019-03-16T16:52:20.849Z,3.70
2019-03-16T16:57:25.164Z,2.70
2019-03-16T17:02:29.588Z,2.57
2019-03-16T17:07:34.108Z,1.50
2019-03-16T17:12:38.424Z,1.47
2019-03-16T17:17:42.724Z,1.50
2019-03-16T17:22:48.696Z,1.30
2019-03-16T17:27:56.909Z,1.30
2019-03-16T17:33:01.411Z,1.27
2019-03-16T17:38:07.756Z,1.40
2019-03-16T17:43:13.237Z,1.60
2019-03-16T17:48:17.734Z,1.40
2019-03-16T17:53:22.941Z,1.50
2019-03-16T17:58:27.400Z,1.20
2019-03-16T18:03:34.865Z,1.15
2019-03-16T18:08:42.335Z,1.10
2019-03-16T18:13:47.072Z,1.20
2019-03-16T18:18:57.765Z,1.12
2019-03-16T18:24:05.942Z,1.40
2019-03-16T18:29:11.500Z,1.10
2019-03-16T18:34:19.066Z,1.20
2019-03-16T18:39:24.770Z,1.10
2019-03-16T18:44:29.312Z,1.10
2019-03-16T18:49:33.844Z,1.10
2019-03-16T18:54:38.329Z,1.20
2019-03-16T18:59:43.040Z,1.12
2019-03-16T19:04:49.387Z,1.00
2019-03-16T19:09:55.172Z,1.10
2019-03-16T19:15:01.072Z,1.10
2019-03-16T19:20:12.356Z,1.20
2019-03-16T19:25:20.718Z,1.10
2019-03-16T19:30:29.587Z,1.10
2019-03-16T19:35:34.595Z,1.20
2019-03-16T19:40:39.120Z,1.67
2019-03-16T19:46:08.043Z,1.80
2019-03-16T19:51:04.310Z,2.20
2019-03-16T19:56:16.622Z,2.00
2019-03-16T20:01:28.280Z,1.80
2019-03-16T20:06:38.203Z,2.20
2019-03-16T20:11:43.029Z,1.95
2019-03-16T20:16:49.421Z,1.80
2019-03-16T20:21:56.594Z,1.90
2019-03-16T20:27:01.173Z,2.30
2019-03-16T20:32:05.589Z,2.08
2019-03-16T20:37:16.306Z,2.60
